sensor_id;sensor_type;location;lat;lon;timestamp;temperature;humidity
6373;DHT22;3219;51.362;7.074;2022-10-16T00:01:38;13.60;99.90
6373;DHT22;3219;51.362;7.074;2022-10-16T00:04:05;13.60;99.90
6373;DHT22;3219;51.362;7.074;2022-10-16T00:06:32;13.60;99.90
6373;DHT22;3219;51.362;7.074;2022-10-16T00:09:00;13.60;99.90
6373;DHT22;3219;51.362;7.074;2022-10-16T00:11:29;13.70;99.90
6373;DHT22;3219;51.362;7.074;2022-10-16T00:13:57;13.60;99.90
6373;DHT22;3219;51.362;7.074;2022-10-16T00:16:25;13.60;99.90
6373;DHT22;3219;51.362;7.074;2022-10-16T00:18:52;13.60;99.90
6373;DHT22;3219;51.362;7.074;2022-10-16T00:21:21;13.70;99.90
6373;DHT22;3219;51.362;7.074;2022-10-16T00:23:51;13.70;99.90
6373;DHT22;3219;51.362;7.074;2022-10-16T00:26:19;13.80;99.90
6373;DHT22;3219;51.362;7.074;2022-10-16T00:28:47;13.90;99.90
6373;DHT22;3219;51.362;7.074;2022-10-16T00:31:15;13.70;99.90
6373;DHT22;3219;51.362;7.074;2022-10-16T00:33:42;13.80;99.90
6373;DHT22;3219;51.362;7.074;2022-10-16T00:36:11;13.80;99.90
6373;DHT22;3219;51.362;7.074;2022-10-16T00:38:38;13.80;99.90
6373;DHT22;3219;51.362;7.074;2022-10-16T00:41:05;13.80;99.90
6373;DHT22;3219;51.362;7.074;2022-10-16T00:43:37;13.80;99.90
6373;DHT22;3219;51.362;7.074;2022-10-16T00:46:08;13.80;99.90
6373;DHT22;3219;51.362;7.074;2022-10-16T00:48:37;13.70;99.90
6373;DHT22;3219;51.362;7.074;2022-10-16T00:51:04;13.80;99.90
6373;DHT22;3219;51.362;7.074;2022-10-16T00:53:32;13.70;99.90
6373;DHT22;3219;51.362;7.074;2022-10-16T00:55:59;13.80;99.90
6373;DHT22;3219;51.362;7.074;2022-10-16T00:58:26;13.70;99.90
6373;DHT22;3219;51.362;7.074;2022-10-16T01:00:54;13.70;99.90
6373;DHT22;3219;51.362;7.074;2022-10-16T01:03:27;13.60;99.90
6373;DHT22;3219;51.362;7.074;2022-10-16T01:06:06;13.60;99.90
6373;DHT22;3219;51.362;7.074;2022-10-16T01:08:42;13.60;99.90
6373;DHT22;3219;51.362;7.074;2022-10-16T01:11:15;13.70;99.90
6373;DHT22;3219;51.362;7.074;2022-10-16T01:13:50;13.60;99.90
6373;DHT22;3219;51.362;7.074;2022-10-16T01:16:28;13.60;99.90
6373;DHT22;3219;51.362;7.074;2022-10-16T01:19:00;13.60;99.90
6373;DHT22;3219;51.362;7.074;2022-10-16T01:21:31;13.60;99.90
6373;DHT22;3219;51.362;7.074;2022-10-16T01:24:05;13.60;99.90
6373;DHT22;3219;51.362;7.074;2022-10-16T01:26:42;13.50;99.90
6373;DHT22;3219;51.362;7.074;2022-10-16T01:29:20;13.50;99.90
6373;DHT22;3219;51.362;7.074;2022-10-16T01:31:50;13.60;99.90
6373;DHT22;3219;51.362;7.074;2022-10-16T01:34:24;13.50;99.90
6373;DHT22;3219;51.362;7.074;2022-10-16T01:36:54;13.40;99.90
6373;DHT22;3219;51.362;7.074;2022-10-16T01:39:26;13.50;99.90
6373;DHT22;3219;51.362;7.074;2022-10-16T01:42:00;13.50;99.90
6373;DHT22;3219;51.362;7.074;2022-10-16T01:44:31;13.50;99.90
6373;DHT22;3219;51.362;7.074;2022-10-16T01:46:59;13.40;99.90
6373;DHT22;3219;51.362;7.074;2022-10-16T01:49:30;13.40;99.90
6373;DHT22;3219;51.362;7.074;2022-10-16T01:52:00;13.40;99.90
6373;DHT22;3219;51.362;7.074;2022-10-16T01:54:31;13.40;99.90
6373;DHT22;3219;51.362;7.074;2022-10-16T01:56:59;13.40;99.90
6373;DHT22;3219;51.362;7.074;2022-10-16T01:59:31;13.30;99.90
6373;DHT22;3219;51.362;7.074;2022-10-16T02:02:01;13.40;99.90
6373;DHT22;3219;51.362;7.074;2022-10-16T02:04:33;13.50;99.90
6373;DHT22;3219;51.362;7.074;2022-10-16T02:07:01;13.50;99.90
6373;DHT22;3219;51.362;7.074;2022-10-16T02:09:28;13.50;99.90
6373;DHT22;3219;51.362;7.074;2022-10-16T02:11:57;13.40;99.90
6373;DHT22;3219;51.362;7.074;2022-10-16T02:14:28;13.50;99.90
6373;DHT22;3219;51.362;7.074;2022-10-16T02:16:56;13.40;99.90
6373;DHT22;3219;51.362;7.074;2022-10-16T02:19:23;13.50;99.90
6373;DHT22;3219;51.362;7.074;2022-10-16T02:21:54;13.60;99.90
6373;DHT22;3219;51.362;7.074;2022-10-16T02:24:26;13.50;99.90
6373;DHT22;3219;51.362;7.074;2022-10-16T02:27:03;13.40;99.90
6373;DHT22;3219;51.362;7.074;2022-10-16T02:29:36;13.50;99.90
6373;DHT22;3219;51.362;7.074;2022-10-16T02:32:08;13.50;99.90
6373;DHT22;3219;51.362;7.074;2022-10-16T02:34:37;13.50;99.90
6373;DHT22;3219;51.362;7.074;2022-10-16T02:37:05;13.50;99.90
6373;DHT22;3219;51.362;7.074;2022-10-16T02:39:33;13.50;99.90
6373;DHT22;3219;51.362;7.074;2022-10-16T02:42:00;13.50;99.90
6373;DHT22;3219;51.362;7.074;2022-10-16T02:44:26;13.50;99.90
6373;DHT22;3219;51.362;7.074;2022-10-16T02:46:53;13.40;99.90
6373;DHT22;3219;51.362;7.074;2022-10-16T02:49:21;13.60;99.90
6373;DHT22;3219;51.362;7.074;2022-10-16T02:51:48;13.50;99.90
6373;DHT22;3219;51.362;7.074;2022-10-16T02:54:15;13.50;99.90
6373;DHT22;3219;51.362;7.074;2022-10-16T02:56:43;13.50;99.90
6373;DHT22;3219;51.362;7.074;2022-10-16T02:59:11;13.60;99.90
6373;DHT22;3219;51.362;7.074;2022-10-16T03:01:38;13.70;99.90
6373;DHT22;3219;51.362;7.074;2022-10-16T03:04:05;13.60;99.90
6373;DHT22;3219;51.362;7.074;2022-10-16T03:06:33;13.60;99.90
6373;DHT22;3219;51.362;7.074;2022-10-16T03:09:00;13.60;99.90
6373;DHT22;3219;51.362;7.074;2022-10-16T03:11:27;13.60;99.90
6373;DHT22;3219;51.362;7.074;2022-10-16T03:13:54;13.70;99.90
6373;DHT22;3219;51.362;7.074;2022-10-16T03:16:21;13.60;99.90
6373;DHT22;3219;51.362;7.074;2022-10-16T03:18:48;13.60;99.90
6373;DHT22;3219;51.362;7.074;2022-10-16T03:21:15;13.70;99.90
6373;DHT22;3219;51.362;7.074;2022-10-16T03:23:43;13.70;99.90
6373;DHT22;3219;51.362;7.074;2022-10-16T03:26:10;13.70;99.90
6373;DHT22;3219;51.362;7.074;2022-10-16T03:28:37;13.70;99.90
6373;DHT22;3219;51.362;7.074;2022-10-16T03:31:04;13.60;99.90
6373;DHT22;3219;51.362;7.074;2022-10-16T03:33:30;13.60;99.90
6373;DHT22;3219;51.362;7.074;2022-10-16T03:35:57;13.60;99.90
6373;DHT22;3219;51.362;7.074;2022-10-16T03:38:24;13.60;99.90
6373;DHT22;3219;51.362;7.074;2022-10-16T03:40:52;13.60;99.90
6373;DHT22;3219;51.362;7.074;2022-10-16T03:43:19;13.60;99.90
6373;DHT22;3219;51.362;7.074;2022-10-16T03:45:46;13.60;99.90
6373;DHT22;3219;51.362;7.074;2022-10-16T03:48:12;13.60;99.90
6373;DHT22;3219;51.362;7.074;2022-10-16T03:50:39;13.60;99.90
6373;DHT22;3219;51.362;7.074;2022-10-16T03:53:06;13.60;99.90
6373;DHT22;3219;51.362;7.074;2022-10-16T03:55:33;13.60;99.90
6373;DHT22;3219;51.362;7.074;2022-10-16T03:58:01;13.50;99.90
6373;DHT22;3219;51.362;7.074;2022-10-16T04:00:27;13.50;99.90
6373;DHT22;3219;51.362;7.074;2022-10-16T04:02:54;13.40;99.90
6373;DHT22;3219;51.362;7.074;2022-10-16T04:05:21;13.40;99.90
6373;DHT22;3219;51.362;7.074;2022-10-16T04:07:48;13.40;99.90
6373;DHT22;3219;51.362;7.074;2022-10-16T04:10:14;13.50;99.90
6373;DHT22;3219;51.362;7.074;2022-10-16T04:12:41;13.40;99.90
6373;DHT22;3219;51.362;7.074;2022-10-16T04:15:09;13.40;99.90
6373;DHT22;3219;51.362;7.074;2022-10-16T04:17:36;13.40;99.90
6373;DHT22;3219;51.362;7.074;2022-10-16T04:20:04;13.30;99.90
6373;DHT22;3219;51.362;7.074;2022-10-16T04:22:31;13.30;99.90
6373;DHT22;3219;51.362;7.074;2022-10-16T04:24:57;13.30;99.90
6373;DHT22;3219;51.362;7.074;2022-10-16T04:27:24;13.20;99.90
6373;DHT22;3219;51.362;7.074;2022-10-16T04:29:51;13.30;99.90
6373;DHT22;3219;51.362;7.074;2022-10-16T04:32:19;13.20;99.90
6373;DHT22;3219;51.362;7.074;2022-10-16T04:34:46;13.30;99.90
6373;DHT22;3219;51.362;7.074;2022-10-16T04:37:13;13.20;99.90
6373;DHT22;3219;51.362;7.074;2022-10-16T04:39:40;13.20;99.90
6373;DHT22;3219;51.362;7.074;2022-10-16T04:42:07;13.20;99.90
6373;DHT22;3219;51.362;7.074;2022-10-16T04:44:33;13.20;99.90
6373;DHT22;3219;51.362;7.074;2022-10-16T04:47:00;13.20;99.90
6373;DHT22;3219;51.362;7.074;2022-10-16T04:51:56;13.10;99.90
6373;DHT22;3219;51.362;7.074;2022-10-16T04:54:22;13.10;99.90
6373;DHT22;3219;51.362;7.074;2022-10-16T04:56:49;13.20;99.90
6373;DHT22;3219;51.362;7.074;2022-10-16T04:59:17;13.10;99.90
6373;DHT22;3219;51.362;7.074;2022-10-16T05:01:44;13.20;99.90
6373;DHT22;3219;51.362;7.074;2022-10-16T05:06:41;13.10;99.90
6373;DHT22;3219;51.362;7.074;2022-10-16T05:09:08;13.10;99.90
6373;DHT22;3219;51.362;7.074;2022-10-16T05:14:02;13.00;99.90
6373;DHT22;3219;51.362;7.074;2022-10-16T05:16:29;13.00;99.90
6373;DHT22;3219;51.362;7.074;2022-10-16T05:21:23;13.10;99.90
6373;DHT22;3219;51.362;7.074;2022-10-16T05:23:52;13.10;99.90
6373;DHT22;3219;51.362;7.074;2022-10-16T05:31:15;13.10;99.90
6373;DHT22;3219;51.362;7.074;2022-10-16T05:33:41;13.20;99.90
6373;DHT22;3219;51.362;7.074;2022-10-16T06:55:11;13.70;99.90
6373;DHT22;3219;51.362;7.074;2022-10-16T06:57:38;13.80;99.90
6373;DHT22;3219;51.362;7.074;2022-10-16T07:00:06;13.70;99.90
6373;DHT22;3219;51.362;7.074;2022-10-16T07:02:33;13.70;99.90
6373;DHT22;3219;51.362;7.074;2022-10-16T07:05:00;13.80;99.90
6373;DHT22;3219;51.362;7.074;2022-10-16T07:07:28;13.80;99.90
6373;DHT22;3219;51.362;7.074;2022-10-16T07:09:55;13.90;99.90
6373;DHT22;3219;51.362;7.074;2022-10-16T07:12:22;13.90;99.90
6373;DHT22;3219;51.362;7.074;2022-10-16T07:14:49;14.00;99.90
6373;DHT22;3219;51.362;7.074;2022-10-16T07:17:17;14.00;99.90
6373;DHT22;3219;51.362;7.074;2022-10-16T07:19:44;14.10;99.90
6373;DHT22;3219;51.362;7.074;2022-10-16T07:22:11;14.10;99.90
6373;DHT22;3219;51.362;7.074;2022-10-16T07:24:40;14.00;99.90
6373;DHT22;3219;51.362;7.074;2022-10-16T07:27:06;14.10;99.90
6373;DHT22;3219;51.362;7.074;2022-10-16T07:29:33;14.00;99.90
6373;DHT22;3219;51.362;7.074;2022-10-16T07:32:01;14.10;99.90
6373;DHT22;3219;51.362;7.074;2022-10-16T07:34:28;14.00;99.90
6373;DHT22;3219;51.362;7.074;2022-10-16T07:36:55;13.90;99.90
6373;DHT22;3219;51.362;7.074;2022-10-16T07:39:21;14.10;99.90
6373;DHT22;3219;51.362;7.074;2022-10-16T07:41:53;14.10;99.90
6373;DHT22;3219;51.362;7.074;2022-10-16T07:44:21;14.00;99.90
6373;DHT22;3219;51.362;7.074;2022-10-16T07:46:48;13.90;99.90
6373;DHT22;3219;51.362;7.074;2022-10-16T07:49:15;14.00;99.90
6373;DHT22;3219;51.362;7.074;2022-10-16T07:51:42;13.80;99.90
6373;DHT22;3219;51.362;7.074;2022-10-16T07:54:10;13.90;99.90
6373;DHT22;3219;51.362;7.074;2022-10-16T07:59:05;14.30;99.90
6373;DHT22;3219;51.362;7.074;2022-10-16T08:01:32;14.60;99.90
6373;DHT22;3219;51.362;7.074;2022-10-16T08:03:59;14.70;99.90
6373;DHT22;3219;51.362;7.074;2022-10-16T11:30:59;16.80;99.90
6373;DHT22;3219;51.362;7.074;2022-10-16T11:36:00;16.90;99.90
6373;DHT22;3219;51.362;7.074;2022-10-16T11:38:37;16.80;99.90
6373;DHT22;3219;51.362;7.074;2022-10-16T11:41:12;16.90;99.90
6373;DHT22;3219;51.362;7.074;2022-10-16T11:43:48;17.00;99.90
6373;DHT22;3219;51.362;7.074;2022-10-16T11:46:19;17.00;99.90
6373;DHT22;3219;51.362;7.074;2022-10-16T11:48:49;17.00;99.90
6373;DHT22;3219;51.362;7.074;2022-10-16T11:51:25;17.00;99.90
6373;DHT22;3219;51.362;7.074;2022-10-16T11:53:56;17.00;99.90
6373;DHT22;3219;51.362;7.074;2022-10-16T11:56:24;17.00;99.90
6373;DHT22;3219;51.362;7.074;2022-10-16T11:58:57;17.00;99.90
6373;DHT22;3219;51.362;7.074;2022-10-16T12:01:31;17.00;99.90
6373;DHT22;3219;51.362;7.074;2022-10-16T12:04:05;17.00;99.90
6373;DHT22;3219;51.362;7.074;2022-10-16T12:06:36;17.00;99.90
6373;DHT22;3219;51.362;7.074;2022-10-16T12:11:34;16.70;99.90
6373;DHT22;3219;51.362;7.074;2022-10-16T12:14:22;16.90;99.90
6373;DHT22;3219;51.362;7.074;2022-10-16T12:16:53;16.90;99.90
6373;DHT22;3219;51.362;7.074;2022-10-16T12:19:22;16.80;99.90
6373;DHT22;3219;51.362;7.074;2022-10-16T12:21:51;17.00;99.90
6373;DHT22;3219;51.362;7.074;2022-10-16T12:24:27;17.00;99.90
6373;DHT22;3219;51.362;7.074;2022-10-16T12:26:56;17.00;99.90
6373;DHT22;3219;51.362;7.074;2022-10-16T12:29:31;17.00;99.90
6373;DHT22;3219;51.362;7.074;2022-10-16T12:31:59;17.00;99.90
6373;DHT22;3219;51.362;7.074;2022-10-16T12:37:34;17.10;99.90
6373;DHT22;3219;51.362;7.074;2022-10-16T12:40:13;17.20;99.90
6373;DHT22;3219;51.362;7.074;2022-10-16T12:42:41;17.40;99.90
6373;DHT22;3219;51.362;7.074;2022-10-16T12:45:26;17.50;99.90
6373;DHT22;3219;51.362;7.074;2022-10-16T12:47:55;17.60;99.90
6373;DHT22;3219;51.362;7.074;2022-10-16T12:50:34;17.70;99.90
6373;DHT22;3219;51.362;7.074;2022-10-16T12:53:02;17.70;99.90
6373;DHT22;3219;51.362;7.074;2022-10-16T12:55:35;17.70;99.90
6373;DHT22;3219;51.362;7.074;2022-10-16T12:58:22;17.70;99.90
6373;DHT22;3219;51.362;7.074;2022-10-16T13:00:57;17.70;99.90
6373;DHT22;3219;51.362;7.074;2022-10-16T13:03:47;17.70;99.90
6373;DHT22;3219;51.362;7.074;2022-10-16T13:06:26;17.70;99.90
6373;DHT22;3219;51.362;7.074;2022-10-16T13:09:20;17.70;99.90
6373;DHT22;3219;51.362;7.074;2022-10-16T13:12:02;17.70;99.90
6373;DHT22;3219;51.362;7.074;2022-10-16T13:14:45;17.70;99.90
6373;DHT22;3219;51.362;7.074;2022-10-16T13:17:21;17.80;99.90
6373;DHT22;3219;51.362;7.074;2022-10-16T13:19:56;17.80;99.90
6373;DHT22;3219;51.362;7.074;2022-10-16T13:22:30;17.80;99.90
6373;DHT22;3219;51.362;7.074;2022-10-16T13:25:13;17.80;99.90
6373;DHT22;3219;51.362;7.074;2022-10-16T13:27:46;17.70;99.90
6373;DHT22;3219;51.362;7.074;2022-10-16T13:30:18;17.70;99.90
6373;DHT22;3219;51.362;7.074;2022-10-16T13:32:49;17.60;99.90
6373;DHT22;3219;51.362;7.074;2022-10-16T13:35:22;17.60;99.90
6373;DHT22;3219;51.362;7.074;2022-10-16T14:02:53;17.50;99.90
6373;DHT22;3219;51.362;7.074;2022-10-16T14:05:22;17.70;99.90
6373;DHT22;3219;51.362;7.074;2022-10-16T14:07:50;17.60;99.90
6373;DHT22;3219;51.362;7.074;2022-10-16T14:10:23;17.60;99.90
6373;DHT22;3219;51.362;7.074;2022-10-16T14:12:56;17.70;99.90
6373;DHT22;3219;51.362;7.074;2022-10-16T14:15:24;17.70;99.90
6373;DHT22;3219;51.362;7.074;2022-10-16T14:17:53;17.70;99.90
6373;DHT22;3219;51.362;7.074;2022-10-16T14:20:26;17.80;99.90
6373;DHT22;3219;51.362;7.074;2022-10-16T14:23:00;17.90;99.90
6373;DHT22;3219;51.362;7.074;2022-10-16T14:25:29;17.80;99.90
6373;DHT22;3219;51.362;7.074;2022-10-16T14:27:58;17.60;99.90
6373;DHT22;3219;51.362;7.074;2022-10-16T14:30:25;17.70;99.90
6373;DHT22;3219;51.362;7.074;2022-10-16T14:32:56;17.60;99.90
6373;DHT22;3219;51.362;7.074;2022-10-16T14:35:29;17.60;99.90
6373;DHT22;3219;51.362;7.074;2022-10-16T14:37:57;17.50;99.90
6373;DHT22;3219;51.362;7.074;2022-10-16T14:40:26;17.50;99.90
6373;DHT22;3219;51.362;7.074;2022-10-16T14:42:53;17.40;99.90
6373;DHT22;3219;51.362;7.074;2022-10-16T14:45:21;17.40;99.90
6373;DHT22;3219;51.362;7.074;2022-10-16T14:47:51;17.40;99.90
6373;DHT22;3219;51.362;7.074;2022-10-16T14:50:20;17.40;99.90
6373;DHT22;3219;51.362;7.074;2022-10-16T14:52:47;17.40;99.90
6373;DHT22;3219;51.362;7.074;2022-10-16T14:55:15;17.40;99.90
6373;DHT22;3219;51.362;7.074;2022-10-16T14:57:44;17.40;99.90
6373;DHT22;3219;51.362;7.074;2022-10-16T15:00:18;17.40;99.90
6373;DHT22;3219;51.362;7.074;2022-10-16T15:02:46;17.30;99.90
6373;DHT22;3219;51.362;7.074;2022-10-16T15:05:16;17.30;99.90
6373;DHT22;3219;51.362;7.074;2022-10-16T15:07:47;17.30;99.90
6373;DHT22;3219;51.362;7.074;2022-10-16T15:10:15;17.30;99.90
6373;DHT22;3219;51.362;7.074;2022-10-16T15:12:43;17.20;99.90
6373;DHT22;3219;51.362;7.074;2022-10-16T15:15:26;17.20;99.90
6373;DHT22;3219;51.362;7.074;2022-10-16T15:17:57;17.10;99.90
6373;DHT22;3219;51.362;7.074;2022-10-16T15:20:27;17.10;99.90
6373;DHT22;3219;51.362;7.074;2022-10-16T15:22:57;17.00;99.90
6373;DHT22;3219;51.362;7.074;2022-10-16T15:25:35;17.00;99.90
6373;DHT22;3219;51.362;7.074;2022-10-16T15:28:07;17.00;99.90
6373;DHT22;3219;51.362;7.074;2022-10-16T15:30:36;16.90;99.90
6373;DHT22;3219;51.362;7.074;2022-10-16T15:33:04;16.90;99.90
6373;DHT22;3219;51.362;7.074;2022-10-16T15:35:31;16.90;99.90
6373;DHT22;3219;51.362;7.074;2022-10-16T15:37:59;16.80;99.90
6373;DHT22;3219;51.362;7.074;2022-10-16T15:40:28;16.80;99.90
6373;DHT22;3219;51.362;7.074;2022-10-16T15:42:55;16.70;99.90
6373;DHT22;3219;51.362;7.074;2022-10-16T15:45:22;16.70;99.90
6373;DHT22;3219;51.362;7.074;2022-10-16T15:47:49;16.70;99.90
